Time;durP1;ratioP1;P1;durP2;ratioP2;P2;SDS_P1;SDS_P2;PMS_P1;PMS_P2;Temp;Humidity;BMP_temperature;BMP_pressure;BME280_temperature;BME280_humidity;BME280_pressure;Samples;Min_cycle;Max_cycle;Signal;HPM_P1;HPM_P2
2021/08/07 00:02:09;;;;;;;;;0.67;0.67;;;;;21.68;49.55;99979.72;5070029;27;45581;-60
2021/08/07 00:04:34;;;;;;;;;1.67;0.00;;;;;21.65;49.27;99979.97;5070763;27;47409;-61
2021/08/07 00:07:00;;;;;;;;;1.00;1.00;;;;;21.61;49.83;99983.91;5068290;28;45448;-61
2021/08/07 00:09:26;;;;;;;;;2.00;1.67;;;;;21.58;50.43;99986.81;5071886;28;45711;-60
2021/08/07 00:11:51;;;;;;;;;1.00;1.00;;;;;21.57;49.67;99983.28;5067222;27;45934;-60
2021/08/07 00:14:17;;;;;;;;;1.00;1.00;;;;;21.56;49.79;99975.28;5062571;28;48275;-60
2021/08/07 00:16:42;;;;;;;;;2.00;1.00;;;;;21.53;49.92;99981.81;5078672;27;45385;-60
2021/08/07 00:19:08;;;;;;;;;1.00;1.00;;;;;21.50;50.46;99981.19;5076893;27;45678;-60
2021/08/07 00:21:33;;;;;;;;;1.00;1.00;;;;;21.50;49.97;99978.50;5060396;28;45650;-61
2021/08/07 00:23:59;;;;;;;;;1.00;1.00;;;;;21.45;49.98;99970.72;5059263;28;47440;-60
2021/08/07 00:26:24;;;;;;;;;1.33;1.33;;;;;21.42;50.22;99979.06;5061830;27;45274;-61
2021/08/07 00:28:50;;;;;;;;;1.33;1.00;;;;;21.38;49.81;99964.97;5060285;28;45701;-60
2021/08/07 00:31:16;;;;;;;;;3.00;3.00;;;;;21.37;50.29;99973.19;5052562;28;45381;-60
2021/08/07 00:33:41;;;;;;;;;0.67;0.67;;;;;21.34;50.40;99968.91;5062865;28;47132;-61
2021/08/07 00:36:07;;;;;;;;;1.00;1.00;;;;;21.32;50.58;99962.75;5074999;28;45472;-62
2021/08/07 00:38:33;;;;;;;;;0.33;0.33;;;;;21.31;50.41;99961.03;5060726;27;45301;-60
2021/08/07 00:40:58;;;;;;;;;1.33;1.00;;;;;21.29;50.18;99957.59;5065140;28;45376;-60
2021/08/07 00:43:24;;;;;;;;;0.00;0.00;;;;;21.26;50.63;99951.59;5056730;28;47054;-60
2021/08/07 00:45:49;;;;;;;;;0.67;0.67;;;;;21.23;50.69;99960.75;5067052;27;45331;-60
2021/08/07 00:48:15;;;;;;;;;1.00;1.00;;;;;21.21;50.56;99956.41;5063562;28;45452;-60
2021/08/07 00:50:45;;;;;;;;;1.33;1.33;;;;;21.18;50.95;99952.13;5067502;27;45501;-59
2021/08/07 00:53:11;;;;;;;;;1.00;1.00;;;;;21.15;50.57;99953.25;5063082;28;45466;-59
2021/08/07 00:55:36;;;;;;;;;1.00;1.00;;;;;21.13;50.66;99955.19;5065985;28;45712;-60
2021/08/07 00:58:02;;;;;;;;;1.00;1.00;;;;;21.11;51.02;99953.59;5059279;28;45370;-60
2021/08/07 01:00:27;;;;;;;;;2.00;2.00;;;;;21.08;51.03;99951.13;5067261;27;45298;-60
2021/08/07 01:03:05;;;;;;;;;1.00;1.00;;;;;21.08;51.10;99953.81;5064072;28;47161;-61
2021/08/07 01:05:44;;;;;;;;;1.67;1.00;;;;;21.06;51.00;99951.25;5060719;27;45492;-60
2021/08/07 01:08:19;;;;;;;;;1.00;1.00;;;;;21.05;51.57;99956.75;5064064;28;45491;-60
2021/08/07 01:11:00;;;;;;;;;2.00;1.00;;;;;21.07;50.93;99944.88;5055900;28;45732;-60
2021/08/07 01:13:36;;;;;;;;;0.00;0.00;;;;;21.08;51.30;99945.72;5063382;27;47279;-61
2021/08/07 01:16:07;;;;;;;;;1.00;1.00;;;;;21.08;51.46;99937.63;5081359;27;46053;-61
2021/08/07 01:18:35;;;;;;;;;0.67;0.67;;;;;21.07;51.56;99939.47;5061889;28;45747;-61
2021/08/07 01:21:07;;;;;;;;;1.00;1.00;;;;;21.08;51.62;99937.63;5065909;28;45608;-61
2021/08/07 01:23:53;;;;;;;;;1.00;1.00;;;;;21.06;50.87;99932.34;5062998;28;47778;-61
2021/08/07 01:26:19;;;;;;;;;1.33;1.00;;;;;21.04;51.50;99941.56;5065719;27;46393;-61
2021/08/07 01:28:46;;;;;;;;;1.00;1.00;;;;;21.02;51.23;99932.72;5062938;28;45255;-61
2021/08/07 01:31:14;;;;;;;;;2.00;1.00;;;;;21.01;51.14;99939.09;5059919;28;45439;-61
2021/08/07 01:33:44;;;;;;;;;2.00;2.00;;;;;20.98;51.71;99934.81;5065250;28;47098;-61
2021/08/07 01:36:13;;;;;;;;;2.67;2.67;;;;;20.96;51.13;99933.19;5065213;28;45909;-60
2021/08/07 01:38:39;;;;;;;;;1.00;1.00;;;;;20.94;51.24;99935.16;5067169;28;45390;-61
2021/08/07 01:41:13;;;;;;;;;1.00;1.00;;;;;20.92;51.37;99931.72;5067880;27;45802;-61
2021/08/07 01:43:38;;;;;;;;;0.00;0.00;;;;;20.90;51.61;99928.28;5069338;28;48023;-61
2021/08/07 01:46:04;;;;;;;;;1.00;1.00;;;;;20.86;51.35;99928.53;5067263;28;45384;-61
2021/08/07 01:48:44;;;;;;;;;1.00;1.00;;;;;20.84;51.95;99933.19;5070191;28;45822;-61
2021/08/07 01:51:18;;;;;;;;;2.67;1.00;;;;;20.81;51.46;99928.00;5064495;28;45360;-61
2021/08/07 01:53:45;;;;;;;;;1.33;0.67;;;;;20.79;51.80;99924.56;5070574;27;46519;-61
2021/08/07 01:56:27;;;;;;;;;1.00;1.00;;;;;20.76;51.88;99926.63;5081167;27;45626;-61
2021/08/07 01:58:58;;;;;;;;;2.67;0.67;;;;;20.73;51.66;99922.34;5066957;28;45431;-61
2021/08/07 02:01:25;;;;;;;;;1.67;0.00;;;;;20.72;51.98;99917.94;5072295;27;45743;-61
2021/08/07 02:03:53;;;;;;;;;0.33;0.33;;;;;20.70;51.84;99908.22;5071199;27;47285;-61
2021/08/07 02:06:20;;;;;;;;;2.67;1.67;;;;;20.67;51.42;99914.72;5074363;28;45318;-61
2021/08/07 02:08:46;;;;;;;;;0.67;0.67;;;;;20.62;52.07;99908.81;5064811;27;45363;-61
2021/08/07 02:11:12;;;;;;;;;1.00;0.67;;;;;20.61;52.03;99908.94;5075359;28;45341;-61
2021/08/07 02:13:39;;;;;;;;;3.00;1.00;;;;;20.60;51.69;99912.63;5068230;27;45294;-61
2021/08/07 02:16:06;;;;;;;;;1.00;1.00;;;;;20.58;52.03;99912.72;5080262;27;45402;-62
2021/08/07 02:18:33;;;;;;;;;1.00;1.00;;;;;20.55;51.58;99912.94;5047331;28;45522;-61
2021/08/07 02:21:00;;;;;;;;;1.00;1.00;;;;;20.53;51.99;99910.38;5081177;27;45622;-61
2021/08/07 02:23:27;;;;;;;;;2.00;1.00;;;;;20.52;52.24;99914.03;5064279;28;47799;-61
2021/08/07 02:26:00;;;;;;;;;0.00;0.00;;;;;20.51;52.36;99911.47;5066384;28;45486;-61
2021/08/07 02:28:26;;;;;;;;;1.00;1.00;;;;;20.49;52.35;99908.91;5053129;28;45372;-60
2021/08/07 02:30:53;;;;;;;;;1.67;0.00;;;;;20.50;52.05;99898.97;5073460;27;45428;-60
2021/08/07 02:33:20;;;;;;;;;1.00;1.00;;;;;20.53;52.32;99904.13;5063591;28;46279;-59
2021/08/07 02:35:46;;;;;;;;;1.67;1.67;;;;;20.54;52.27;99900.44;5068942;28;45455;-59
2021/08/07 02:38:13;;;;;;;;;0.00;0.00;;;;;20.55;52.04;99894.94;5063525;27;45499;-60
2021/08/07 02:40:39;;;;;;;;;0.00;0.00;;;;;20.54;52.18;99895.06;5067629;28;45515;-60
2021/08/07 02:43:05;;;;;;;;;0.00;0.00;;;;;20.53;52.07;99893.34;5063099;27;45618;-61
2021/08/07 02:45:31;;;;;;;;;1.33;1.33;;;;;20.51;51.86;99881.81;5092668;27;45379;-61
2021/08/07 02:47:57;;;;;;;;;1.00;1.00;;;;;20.50;52.21;99880.09;5071638;28;45468;-61
2021/08/07 02:50:23;;;;;;;;;2.00;1.00;;;;;20.49;52.19;99884.63;5076782;27;45686;-62
2021/08/07 02:52:48;;;;;;;;;1.00;1.00;;;;;20.53;52.16;99893.34;5070620;28;47039;-61
2021/08/07 02:55:14;;;;;;;;;3.00;1.00;;;;;20.52;52.16;99886.22;5077164;27;45290;-61
2021/08/07 02:57:39;;;;;;;;;2.00;0.33;;;;;20.52;52.02;99883.53;5066101;27;45444;-60
2021/08/07 03:00:06;;;;;;;;;0.00;0.00;;;;;20.55;51.95;99877.91;5076687;27;45595;-61
2021/08/07 03:02:31;;;;;;;;;1.00;1.00;;;;;20.59;52.00;99881.25;5072352;27;48326;-61
2021/08/07 03:04:57;;;;;;;;;2.00;2.00;;;;;20.59;52.46;99863.25;5075503;27;45718;-61
2021/08/07 03:07:22;;;;;;;;;1.67;1.33;;;;;20.59;51.62;99865.06;5071778;27;45594;-61
2021/08/07 03:09:48;;;;;;;;;0.67;0.67;;;;;20.61;51.92;99868.50;5069103;28;45360;-61
2021/08/07 03:12:15;;;;;;;;;1.00;1.00;;;;;20.59;52.34;99868.63;5071930;28;48101;-61
2021/08/07 03:14:42;;;;;;;;;1.00;1.00;;;;;20.57;52.06;99868.72;5072932;27;46117;-61
2021/08/07 03:17:08;;;;;;;;;2.67;1.00;;;;;20.57;52.08;99855.25;5072778;28;45321;-61
2021/08/07 03:19:33;;;;;;;;;1.00;1.00;;;;;20.57;52.22;99862.47;5074151;28;45467;-60
2021/08/07 03:21:59;;;;;;;;;0.00;0.00;;;;;20.57;52.04;99859.78;5072142;28;48514;-61
2021/08/07 03:24:24;;;;;;;;;1.00;1.00;;;;;20.58;52.44;99858.78;5073498;28;45357;-61
2021/08/07 03:26:50;;;;;;;;;1.00;1.00;;;;;20.58;52.69;99848.00;5072051;28;45710;-61
2021/08/07 03:29:15;;;;;;;;;2.00;1.00;;;;;20.58;52.09;99842.63;5075122;27;45432;-61
2021/08/07 03:31:41;;;;;;;;;2.67;2.00;;;;;20.59;52.55;99848.91;5056170;28;45356;-61
2021/08/07 03:34:06;;;;;;;;;1.00;1.00;;;;;20.58;52.58;99842.63;5073371;28;45466;-61
2021/08/07 03:36:32;;;;;;;;;1.33;1.33;;;;;20.58;52.81;99845.31;5066745;28;45422;-62
2021/08/07 03:38:58;;;;;;;;;1.00;1.00;;;;;20.58;52.68;99848.00;5070030;28;45341;-61
2021/08/07 03:41:23;;;;;;;;;1.67;1.67;;;;;20.57;52.73;99844.47;5066708;28;45923;-61
2021/08/07 03:43:49;;;;;;;;;2.33;2.33;;;;;20.58;52.37;99834.53;5077973;28;45330;-61
2021/08/07 03:46:14;;;;;;;;;1.00;1.00;;;;;20.58;52.34;99837.22;5072885;27;45234;-61
2021/08/07 03:48:40;;;;;;;;;1.00;1.00;;;;;20.60;52.59;99839.84;5073876;27;45555;-61
2021/08/07 03:51:05;;;;;;;;;2.00;1.00;;;;;20.60;52.75;99839.84;5067072;27;46290;-60
2021/08/07 03:53:31;;;;;;;;;2.00;0.67;;;;;20.59;52.88;99838.97;5073289;27;45338;-60
2021/08/07 03:55:56;;;;;;;;;1.67;1.67;;;;;20.59;52.60;99827.34;5066062;28;45795;-60
2021/08/07 03:58:22;;;;;;;;;2.00;2.00;;;;;20.58;52.57;99831.84;5067054;27;45244;-60
2021/08/07 04:00:47;;;;;;;;;1.00;1.00;;;;;20.55;52.99;99827.53;5066563;27;45296;-62
2021/08/07 04:03:13;;;;;;;;;1.00;1.00;;;;;20.57;53.21;99832.81;5072127;28;45487;-61
2021/08/07 04:05:38;;;;;;;;;2.67;2.67;;;;;20.57;52.96;99819.34;5065664;28;45347;-60
2021/08/07 04:08:08;;;;;;;;;2.00;2.00;;;;;20.56;52.77;99818.47;5059744;27;45326;-60
2021/08/07 04:10:35;;;;;;;;;3.67;3.00;;;;;20.56;53.08;99812.22;5059708;28;46796;-61
2021/08/07 04:13:01;;;;;;;;;1.67;1.67;;;;;20.54;52.74;99814.19;5069425;27;45306;-61
2021/08/07 04:15:27;;;;;;;;;3.33;2.00;;;;;20.53;53.01;99820.56;5061513;28;45293;-61
2021/08/07 04:17:52;;;;;;;;;3.00;3.00;;;;;20.55;52.88;99818.59;5063748;28;45582;-61
2021/08/07 04:20:18;;;;;;;;;2.00;2.00;;;;;20.55;53.46;99821.28;5060650;28;47408;-61
2021/08/07 04:22:44;;;;;;;;;2.00;2.00;;;;;20.55;53.29;99822.16;5062739;28;45656;-62
2021/08/07 04:25:10;;;;;;;;;1.67;1.67;;;;;20.56;53.44;99817.63;5061309;28;45544;-61
2021/08/07 04:27:36;;;;;;;;;2.00;2.00;;;;;20.55;52.96;99824.00;5063313;28;45400;-61
2021/08/07 04:30:04;;;;;;;;;3.67;2.00;;;;;20.53;53.51;99816.03;5058494;28;48408;-61
2021/08/07 04:32:29;;;;;;;;;3.00;3.00;;;;;20.51;53.67;99823.38;5057315;28;45263;-61
2021/08/07 04:34:55;;;;;;;;;3.00;2.67;;;;;20.50;53.34;99821.66;5063520;27;45308;-61
2021/08/07 04:37:20;;;;;;;;;3.00;3.00;;;;;20.46;53.43;99812.09;5062963;28;45256;-61
2021/08/07 04:39:46;;;;;;;;;1.33;1.33;;;;;20.45;54.06;99822.97;5061164;28;47348;-62
2021/08/07 04:42:12;;;;;;;;;1.00;1.00;;;;;20.41;53.63;99813.38;5063902;28;45574;-61
2021/08/07 04:44:37;;;;;;;;;4.33;3.00;;;;;20.38;54.16;99819.03;5061091;28;45549;-58
2021/08/07 04:47:03;;;;;;;;;2.67;2.00;;;;;20.34;53.71;99812.16;5091636;27;45576;-59
2021/08/07 04:49:30;;;;;;;;;3.00;2.33;;;;;20.30;54.44;99803.44;5077796;28;48055;-59
2021/08/07 04:51:56;;;;;;;;;1.00;1.00;;;;;20.27;54.23;99806.34;5078087;27;45368;-59
2021/08/07 04:54:21;;;;;;;;;3.67;2.67;;;;;20.26;54.27;99812.72;5078161;28;45363;-59
2021/08/07 04:56:47;;;;;;;;;2.00;2.00;;;;;20.25;54.66;99811.00;5071088;28;45555;-60
2021/08/07 04:59:12;;;;;;;;;3.00;3.00;;;;;20.22;54.46;99803.16;5077999;28;47410;-61
2021/08/07 05:01:38;;;;;;;;;1.33;1.33;;;;;20.20;54.91;99800.59;5057885;27;45990;-60
2021/08/07 05:04:04;;;;;;;;;3.00;2.00;;;;;20.20;54.70;99799.72;5056419;28;45484;-61
2021/08/07 05:06:29;;;;;;;;;2.33;2.33;;;;;20.18;54.80;99796.28;5048704;28;45376;-58
2021/08/07 05:08:54;;;;;;;;;2.67;2.67;;;;;20.16;55.14;99795.53;5057678;28;47071;-57
2021/08/07 05:11:20;;;;;;;;;4.33;3.00;;;;;20.14;55.28;99801.03;5057103;28;45702;-58
2021/08/07 05:13:45;;;;;;;;;3.00;3.00;;;;;20.13;55.59;99799.31;5051097;28;45294;-57
2021/08/07 05:16:11;;;;;;;;;3.00;3.00;;;;;20.12;55.06;99796.75;5057274;28;45331;-57
2021/08/07 05:18:36;;;;;;;;;2.00;2.00;;;;;20.10;55.07;99783.41;5056847;28;46920;-58
2021/08/07 05:21:02;;;;;;;;;2.00;2.00;;;;;20.10;55.06;99786.09;5048467;28;45483;-57
2021/08/07 05:23:28;;;;;;;;;5.00;4.00;;;;;20.08;55.73;99781.81;5058191;28;45349;-61
2021/08/07 05:25:53;;;;;;;;;1.67;1.67;;;;;20.07;55.25;99783.63;5057135;28;45571;-60
2021/08/07 05:28:18;;;;;;;;;1.33;1.33;;;;;20.06;55.66;99781.03;5057832;28;47979;-62
2021/08/07 05:30:44;;;;;;;;;4.67;3.67;;;;;20.06;56.15;99773.81;5048198;28;45761;-60
2021/08/07 05:33:09;;;;;;;;;2.00;2.00;;;;;20.07;55.65;99777.38;5040244;28;45604;-60
2021/08/07 05:35:35;;;;;;;;;3.00;3.00;;;;;20.07;55.83;99767.47;5041641;28;45777;-60
2021/08/07 05:38:00;;;;;;;;;4.00;2.33;;;;;20.07;55.61;99758.50;5046817;28;47297;-60
2021/08/07 05:40:26;;;;;;;;;2.00;2.00;;;;;20.05;56.08;99755.09;5061444;28;45344;-60
2021/08/07 05:42:51;;;;;;;;;2.00;2.00;;;;;20.06;56.25;99756.81;5060939;28;45447;-60
2021/08/07 05:45:17;;;;;;;;;2.33;2.33;;;;;20.08;55.77;99755.72;5061580;28;45384;-61
2021/08/07 05:47:42;;;;;;;;;3.00;2.33;;;;;20.12;55.98;99765.28;5048636;28;47185;-61
2021/08/07 05:50:09;;;;;;;;;2.33;2.33;;;;;20.14;56.05;99770.56;5061322;28;45669;-61
2021/08/07 05:52:36;;;;;;;;;3.00;3.00;;;;;20.12;56.06;99761.75;5060972;27;45412;-60
2021/08/07 05:55:03;;;;;;;;;1.33;1.33;;;;;20.14;55.95;99766.03;5061184;28;45765;-61
2021/08/07 05:57:28;;;;;;;;;1.67;1.00;;;;;20.13;55.71;99764.31;5060836;28;47296;-60
2021/08/07 05:59:54;;;;;;;;;3.33;2.00;;;;;20.12;56.28;99762.59;5047286;28;46105;-60
2021/08/07 06:02:19;;;;;;;;;4.00;1.00;;;;;20.13;56.44;99758.06;5048965;28;47014;-61
2021/08/07 06:04:44;;;;;;;;;2.33;2.33;;;;;20.14;55.99;99762.47;5057481;27;45633;-61
2021/08/07 06:07:10;;;;;;;;;3.67;3.00;;;;;20.15;56.32;99764.19;5060874;27;48166;-61
2021/08/07 06:09:35;;;;;;;;;3.00;3.00;;;;;20.15;56.41;99761.50;5060830;28;45341;-61
2021/08/07 06:12:01;;;;;;;;;3.00;3.00;;;;;20.17;56.24;99760.41;5061010;28;45491;-60
2021/08/07 06:14:26;;;;;;;;;5.00;3.00;;;;;20.19;56.59;99763.81;5061010;28;45841;-61
2021/08/07 06:16:52;;;;;;;;;3.00;2.67;;;;;20.22;56.36;99757.38;5093408;27;47344;-61
2021/08/07 06:19:17;;;;;;;;;3.00;3.00;;;;;20.25;56.23;99766.06;5060754;28;45366;-61
2021/08/07 06:21:43;;;;;;;;;4.00;4.00;;;;;20.29;55.94;99774.75;5051341;28;45358;-60
2021/08/07 06:24:08;;;;;;;;;2.00;2.00;;;;;20.33;56.16;99772.69;5059780;28;45327;-61
2021/08/07 06:26:34;;;;;;;;;4.00;2.00;;;;;20.35;56.45;99770.75;5060416;28;47879;-61
2021/08/07 06:29:00;;;;;;;;;1.67;1.67;;;;;20.38;56.21;99757.03;5060418;28;45693;-61
2021/08/07 06:31:25;;;;;;;;;3.00;3.00;;;;;20.39;55.75;99758.75;5053068;28;45811;-61
2021/08/07 06:33:51;;;;;;;;;3.00;3.00;;;;;20.38;56.20;99760.59;5055063;28;45380;-60
2021/08/07 06:36:17;;;;;;;;;2.00;2.00;;;;;20.38;56.38;99757.03;5093162;27;47414;-60
2021/08/07 06:38:44;;;;;;;;;3.00;2.00;;;;;20.39;56.46;99761.44;5059251;27;45255;-60
2021/08/07 06:41:10;;;;;;;;;4.00;4.00;;;;;20.38;55.99;99752.50;5059798;28;45899;-60
2021/08/07 06:43:36;;;;;;;;;3.00;3.00;;;;;20.38;56.35;99754.34;5059799;28;45565;-60
2021/08/07 06:46:01;;;;;;;;;3.00;3.00;;;;;20.36;56.33;99748.22;5060021;27;47079;-60
2021/08/07 06:48:27;;;;;;;;;6.67;3.00;;;;;20.37;56.36;99749.94;5060173;28;46289;-60
2021/08/07 06:50:53;;;;;;;;;3.33;3.33;;;;;20.34;56.10;99747.50;5060313;28;45393;-60
2021/08/07 06:53:18;;;;;;;;;3.00;3.00;;;;;20.33;56.58;99746.63;5060342;28;45404;-60
2021/08/07 06:55:44;;;;;;;;;2.00;2.00;;;;;20.35;56.26;99749.19;5076456;27;47408;-61
2021/08/07 06:58:09;;;;;;;;;3.00;2.00;;;;;20.37;56.76;99744.53;5057377;28;45329;-61
2021/08/07 07:00:36;;;;;;;;;2.00;2.00;;;;;20.39;56.66;99753.38;5058878;28;45262;-61
2021/08/07 07:03:02;;;;;;;;;3.00;3.00;;;;;20.42;56.61;99745.06;5056430;28;45625;-62
2021/08/07 07:05:31;;;;;;;;;3.00;1.67;;;;;20.44;56.24;99745.81;5060211;28;45790;-62
2021/08/07 07:07:57;;;;;;;;;2.00;2.00;;;;;20.45;56.34;99742.13;5059918;28;45431;-62
2021/08/07 07:10:22;;;;;;;;;1.00;1.00;;;;;20.46;56.66;99747.44;5059096;28;45430;-61
2021/08/07 07:12:48;;;;;;;;;3.00;3.00;;;;;20.50;56.72;99739.94;5055077;28;45323;-62
2021/08/07 07:15:14;;;;;;;;;3.00;3.00;;;;;20.52;56.42;99744.22;5060064;28;47918;-62
2021/08/07 07:17:39;;;;;;;;;3.67;2.33;;;;;20.57;56.66;99746.56;5056691;28;45563;-58
2021/08/07 07:20:06;;;;;;;;;2.00;2.00;;;;;20.60;56.61;99749.03;5058503;28;45385;-58
2021/08/07 07:22:32;;;;;;;;;3.00;3.00;;;;;20.62;56.46;99748.91;5046579;27;45311;-59
2021/08/07 07:24:58;;;;;;;;;1.33;1.33;;;;;20.67;56.28;99750.25;5043622;28;47927;-61
2021/08/07 07:27:23;;;;;;;;;3.00;3.00;;;;;20.72;56.29;99747.22;5049576;28;45406;-59
2021/08/07 07:29:49;;;;;;;;;2.33;2.33;;;;;20.78;56.26;99744.00;5048981;28;45443;-59
2021/08/07 07:32:14;;;;;;;;;2.00;2.00;;;;;20.85;55.77;99746.13;5063253;28;45503;-64
2021/08/07 07:34:39;;;;;;;;;2.00;0.67;;;;;20.93;55.80;99747.31;5070422;27;47849;-64
2021/08/07 07:37:06;;;;;;;;;3.00;1.33;;;;;21.01;55.56;99743.03;5087485;27;45440;-64
2021/08/07 07:39:32;;;;;;;;;2.33;2.33;;;;;21.09;55.61;99740.59;5083332;27;46151;-64
2021/08/07 07:41:57;;;;;;;;;4.00;4.00;;;;;21.15;55.31;99723.91;5071689;28;45379;-63
2021/08/07 07:44:23;;;;;;;;;3.00;1.33;;;;;21.22;55.37;99723.41;5068645;27;47113;-65
2021/08/07 07:46:49;;;;;;;;;1.67;1.67;;;;;21.27;55.47;99730.16;5056760;27;45374;-64
2021/08/07 07:49:14;;;;;;;;;3.00;2.00;;;;;21.33;55.69;99731.50;5071489;27;45525;-63
2021/08/07 07:51:41;;;;;;;;;2.00;2.00;;;;;21.41;54.75;99729.03;5071697;28;45287;-63
2021/08/07 07:54:06;;;;;;;;;2.67;1.67;;;;;21.48;55.09;99730.25;5060926;28;47845;-62
2021/08/07 07:56:32;;;;;;;;;3.00;3.00;;;;;21.52;54.77;99725.47;5066539;28;45361;-61
2021/08/07 07:58:57;;;;;;;;;4.00;2.33;;;;;21.55;55.09;99720.66;5066323;28;45802;-61
2021/08/07 08:01:23;;;;;;;;;4.00;3.00;;;;;21.60;54.82;99726.53;5069445;28;45557;-61
2021/08/07 08:03:48;;;;;;;;;1.00;1.00;;;;;21.68;54.66;99715.94;5068967;27;47156;-62
2021/08/07 08:06:14;;;;;;;;;3.00;0.00;;;;;21.79;54.42;99712.34;5073128;28;45287;-61
2021/08/07 08:08:40;;;;;;;;;4.00;3.67;;;;;21.89;54.04;99717.84;5070522;27;45526;-61
2021/08/07 08:11:06;;;;;;;;;3.00;3.00;;;;;21.94;53.98;99700.25;5067041;28;45443;-63
2021/08/07 08:13:32;;;;;;;;;2.33;2.00;;;;;21.94;53.80;99711.03;5062332;28;48118;-62
2021/08/07 08:15:57;;;;;;;;;1.00;1.00;;;;;21.95;53.83;99710.06;5056412;28;45661;-61
2021/08/07 08:18:23;;;;;;;;;1.00;1.00;;;;;21.99;53.19;99703.44;5063777;27;45448;-62
2021/08/07 08:20:49;;;;;;;;;1.00;1.00;;;;;22.04;53.29;99701.19;5058846;28;45417;-61
2021/08/07 08:23:15;;;;;;;;;1.00;1.00;;;;;22.11;53.20;99698.84;5074660;28;48460;-61
2021/08/07 08:25:40;;;;;;;;;3.33;1.00;;;;;22.17;53.22;99694.75;5071569;27;45239;-61
2021/08/07 08:28:06;;;;;;;;;0.33;0.33;;;;;22.22;52.95;99692.50;5074020;28;45291;-62
2021/08/07 08:30:32;;;;;;;;;1.00;1.00;;;;;22.29;52.86;99691.84;5063621;28;45946;-62
2021/08/07 08:32:57;;;;;;;;;2.00;2.00;;;;;22.37;52.70;99690.34;5056749;28;48488;-62
2021/08/07 08:35:23;;;;;;;;;3.33;2.00;;;;;22.46;52.99;99682.25;5069176;28;46028;-61
2021/08/07 08:37:50;;;;;;;;;1.00;1.00;;;;;22.56;52.73;99687.72;5055627;27;45444;-62
2021/08/07 08:40:16;;;;;;;;;2.00;0.67;;;;;22.64;52.50;99690.63;5063186;28;45603;-62
2021/08/07 08:42:42;;;;;;;;;2.00;2.00;;;;;22.68;52.26;99677.69;5066723;28;45576;-63
2021/08/07 08:45:09;;;;;;;;;2.00;2.00;;;;;22.68;52.27;99683.09;5063222;27;46145;-63
2021/08/07 08:47:40;;;;;;;;;2.00;1.00;;;;;22.68;51.80;99678.53;5064902;28;45425;-63
2021/08/07 08:50:07;;;;;;;;;1.00;1.00;;;;;22.68;51.93;99674.97;5061764;27;45527;-63
2021/08/07 08:52:37;;;;;;;;;2.33;2.33;;;;;22.70;52.08;99662.16;5058607;27;47213;-62
2021/08/07 08:55:03;;;;;;;;;2.00;2.00;;;;;22.71;51.42;99664.72;5059320;28;45326;-62
2021/08/07 08:57:28;;;;;;;;;1.00;1.00;;;;;22.71;51.51;99663.88;5060720;28;45469;-61
2021/08/07 08:59:54;;;;;;;;;1.00;0.67;;;;;22.64;51.63;99649.22;5082187;27;45675;-62
2021/08/07 09:02:20;;;;;;;;;3.00;1.33;;;;;22.57;51.69;99646.19;5062129;28;45758;-62
2021/08/07 09:04:46;;;;;;;;;1.00;1.00;;;;;22.53;51.27;99648.31;5064835;28;45362;-62
2021/08/07 09:07:14;;;;;;;;;1.00;1.00;;;;;22.48;51.63;99655.09;5072981;27;45440;-62
2021/08/07 09:09:42;;;;;;;;;0.67;0.67;;;;;22.44;52.30;99648.25;5068973;28;45331;-62
2021/08/07 09:12:09;;;;;;;;;2.00;1.00;;;;;22.40;51.88;99652.22;5064298;28;46165;-63
2021/08/07 09:14:40;;;;;;;;;0.33;0.33;;;;;22.37;52.11;99657.91;5063749;28;45761;-63
2021/08/07 09:17:09;;;;;;;;;1.67;1.67;;;;;22.32;53.05;99666.41;5063808;27;45642;-63
2021/08/07 09:19:41;;;;;;;;;2.00;2.00;;;;;22.26;54.05;99667.81;5067129;28;45550;-63
2021/08/07 09:22:10;;;;;;;;;2.00;2.00;;;;;22.23;54.42;99667.19;5070559;28;47188;-63
2021/08/07 09:24:57;;;;;;;;;1.67;1.67;;;;;22.22;55.38;99663.63;5076503;28;45432;-63
2021/08/07 09:27:47;;;;;;;;;1.00;1.00;;;;;22.22;55.32;99649.25;5071361;28;45728;-64
2021/08/07 09:30:16;;;;;;;;;1.00;1.00;;;;;22.20;55.42;99656.66;5077778;27;45461;-63
2021/08/07 09:32:50;;;;;;;;;1.67;1.67;;;;;22.15;55.26;99653.50;5058902;28;48477;-63
2021/08/07 09:35:19;;;;;;;;;1.00;1.00;;;;;22.17;55.41;99660.47;5075690;28;45972;-64
2021/08/07 09:37:46;;;;;;;;;2.67;2.67;;;;;22.20;56.04;99657.50;5077488;27;45448;-62
2021/08/07 09:40:12;;;;;;;;;2.00;2.00;;;;;22.22;55.82;99644.72;5069604;28;45618;-63
2021/08/07 09:42:53;;;;;;;;;1.00;1.00;;;;;22.24;56.18;99645.47;5095872;27;47438;-62
2021/08/07 09:45:24;;;;;;;;;1.67;1.00;;;;;22.20;56.55;99653.94;5087173;27;46273;-63
2021/08/07 09:48:05;;;;;;;;;2.00;2.00;;;;;22.15;56.07;99648.97;5067666;28;45610;-62
2021/08/07 09:50:33;;;;;;;;;2.00;2.00;;;;;22.09;56.67;99648.63;5070712;28;45381;-62
2021/08/07 09:53:00;;;;;;;;;2.00;2.00;;;;;22.04;56.42;99646.28;5084652;27;46274;-61
2021/08/07 09:55:27;;;;;;;;;3.67;2.00;;;;;22.01;56.65;99644.72;5071095;27;45545;-62
2021/08/07 09:58:01;;;;;;;;;5.00;4.00;;;;;21.95;56.89;99645.22;5063849;28;45454;-62
2021/08/07 10:00:42;;;;;;;;;3.00;3.00;;;;;21.94;57.23;99646.22;5069562;27;45682;-63
2021/08/07 10:03:15;;;;;;;;;1.67;1.67;;;;;21.92;56.80;99655.44;5072258;28;47792;-63
2021/08/07 10:05:41;;;;;;;;;2.00;1.00;;;;;21.90;56.98;99649.31;5067422;28;45857;-63
2021/08/07 10:08:07;;;;;;;;;2.67;1.00;;;;;21.88;56.98;99652.16;5072254;28;45704;-63
2021/08/07 10:10:34;;;;;;;;;2.00;2.00;;;;;21.87;57.18;99638.78;5066174;28;45278;-63
2021/08/07 10:13:01;;;;;;;;;3.00;3.00;;;;;21.83;57.08;99646.28;5070493;28;47182;-63
2021/08/07 10:15:27;;;;;;;;;2.00;1.00;;;;;21.82;57.18;99646.41;5061754;27;45313;-63
2021/08/07 10:17:55;;;;;;;;;1.33;1.00;;;;;21.79;56.55;99642.13;5061218;28;45401;-63
2021/08/07 10:20:20;;;;;;;;;1.67;1.67;;;;;21.74;56.74;99644.38;5061003;28;45418;-62
2021/08/07 10:22:47;;;;;;;;;1.00;1.00;;;;;21.70;56.89;99637.50;5060087;28;47986;-62
2021/08/07 10:25:13;;;;;;;;;1.00;1.00;;;;;21.68;57.20;99642.19;5061224;28;45825;-62
2021/08/07 10:27:40;;;;;;;;;1.00;1.00;;;;;21.67;57.35;99635.94;5063854;28;45594;-61
2021/08/07 10:30:11;;;;;;;;;1.00;1.00;;;;;21.67;57.09;99635.06;5066029;28;45781;-62
2021/08/07 10:32:42;;;;;;;;;1.00;1.00;;;;;21.67;57.13;99629.66;5062442;27;47205;-62
2021/08/07 10:35:10;;;;;;;;;1.00;1.00;;;;;21.69;57.42;99625.00;5061438;27;45575;-67
2021/08/07 10:37:36;;;;;;;;;1.00;1.00;;;;;21.69;57.04;99622.28;5048590;28;45485;-65
2021/08/07 10:40:03;;;;;;;;;0.67;0.67;;;;;21.69;57.98;99620.44;5064202;27;45302;-65
2021/08/07 10:42:31;;;;;;;;;1.33;1.33;;;;;21.72;58.03;99612.09;5063351;28;46999;-64
2021/08/07 10:44:58;;;;;;;;;2.00;2.00;;;;;21.79;58.28;99614.28;5064642;28;45705;-66
2021/08/07 10:47:41;;;;;;;;;1.33;1.00;;;;;21.87;58.21;99606.38;5063070;28;45530;-66
2021/08/07 10:50:24;;;;;;;;;1.00;1.00;;;;;21.94;57.91;99602.13;5061591;28;45386;-65
2021/08/07 10:52:56;;;;;;;;;1.00;1.00;;;;;21.95;57.13;99612.81;5058910;28;47676;-67
2021/08/07 10:55:46;;;;;;;;;1.00;1.00;;;;;21.96;57.73;99608.25;5062212;27;45514;-63
2021/08/07 10:58:30;;;;;;;;;2.67;1.00;;;;;21.99;57.49;99614.28;5060960;28;45299;-69
2021/08/07 11:01:22;;;;;;;;;1.67;1.00;;;;;22.01;58.13;99612.28;5062355;28;45743;-68
2021/08/07 11:03:48;;;;;;;;;0.67;0.67;;;;;22.07;57.61;99605.53;5060778;28;45457;-60
2021/08/07 11:06:14;;;;;;;;;1.00;1.00;;;;;22.15;58.03;99605.72;5060423;28;45748;-60
2021/08/07 11:08:40;;;;;;;;;2.00;2.00;;;;;22.21;57.75;99599.75;5061382;28;45445;-61
2021/08/07 11:11:28;;;;;;;;;2.00;2.00;;;;;22.33;57.89;99598.69;5060191;28;45445;-61
2021/08/07 11:13:54;;;;;;;;;0.67;0.67;;;;;22.46;57.84;99601.16;5058785;28;46921;-61
2021/08/07 11:16:20;;;;;;;;;2.00;1.00;;;;;22.57;57.01;99598.34;5058837;28;45420;-61
2021/08/07 11:18:48;;;;;;;;;2.67;2.67;;;;;22.67;56.79;99601.09;5058812;28;45376;-61
2021/08/07 11:21:51;;;;;;;;;2.00;2.00;;;;;22.77;56.88;99591.19;5059492;28;45574;-61
2021/08/07 11:24:43;;;;;;;;;2.00;2.00;;;;;22.89;56.72;99592.81;5057156;28;47168;-61
2021/08/07 11:27:08;;;;;;;;;3.00;3.00;;;;;23.00;56.71;99590.97;5048933;28;45404;-61
2021/08/07 11:29:34;;;;;;;;;3.33;1.33;;;;;23.09;56.31;99569.31;5061325;28;45654;-60
2021/08/07 11:32:15;;;;;;;;;1.00;1.00;;;;;23.16;56.15;99569.63;5061026;28;46038;-61
2021/08/07 11:34:47;;;;;;;;;1.00;1.00;;;;;23.21;55.94;99561.94;5064325;28;47751;-60
2021/08/07 11:37:19;;;;;;;;;0.00;0.00;;;;;23.23;55.15;99550.94;5068486;27;45433;-60